sensor_id;sensor_type;location;lat;lon;timestamp;temperature;humidity
65598;SHT31;52267;51.984;20.956;2023-06-26T00:01:37;14.05;77.71
65598;SHT31;52267;51.984;20.956;2023-06-26T00:04:06;13.98;77.81
65598;SHT31;52267;51.984;20.956;2023-06-26T00:06:33;13.96;77.82
65598;SHT31;52267;51.984;20.956;2023-06-26T00:09:00;13.94;77.79
65598;SHT31;52267;51.984;20.956;2023-06-26T00:11:27;13.93;77.84
65598;SHT31;52267;51.984;20.956;2023-06-26T00:13:57;13.92;77.87
65598;SHT31;52267;51.984;20.956;2023-06-26T00:16:24;13.91;77.83
65598;SHT31;52267;51.984;20.956;2023-06-26T00:18:51;13.90;77.82
65598;SHT31;52267;51.984;20.956;2023-06-26T00:21:18;13.88;77.81
65598;SHT31;52267;51.984;20.956;2023-06-26T00:23:45;13.86;77.91
65598;SHT31;52267;51.984;20.956;2023-06-26T00:26:12;13.85;77.92
65598;SHT31;52267;51.984;20.956;2023-06-26T00:28:40;13.84;78.01
65598;SHT31;52267;51.984;20.956;2023-06-26T00:31:07;13.82;77.94
65598;SHT31;52267;51.984;20.956;2023-06-26T00:33:34;13.83;77.69
65598;SHT31;52267;51.984;20.956;2023-06-26T00:36:00;13.84;77.59
65598;SHT31;52267;51.984;20.956;2023-06-26T00:38:28;13.85;77.41
65598;SHT31;52267;51.984;20.956;2023-06-26T00:40:55;13.84;77.42
65598;SHT31;52267;51.984;20.956;2023-06-26T00:43:22;13.81;77.36
65598;SHT31;52267;51.984;20.956;2023-06-26T00:45:49;13.77;77.30
65598;SHT31;52267;51.984;20.956;2023-06-26T00:48:16;13.70;77.39
65598;SHT31;52267;51.984;20.956;2023-06-26T00:50:44;13.67;77.44
65598;SHT31;52267;51.984;20.956;2023-06-26T00:53:11;13.65;77.48
65598;SHT31;52267;51.984;20.956;2023-06-26T00:55:38;13.63;77.47
65598;SHT31;52267;51.984;20.956;2023-06-26T00:58:05;13.62;77.50
65598;SHT31;52267;51.984;20.956;2023-06-26T01:00:32;13.59;77.59
65598;SHT31;52267;51.984;20.956;2023-06-26T01:03:00;13.59;77.35
65598;SHT31;52267;51.984;20.956;2023-06-26T01:05:28;13.56;77.17
65598;SHT31;52267;51.984;20.956;2023-06-26T01:07:56;13.51;77.36
65598;SHT31;52267;51.984;20.956;2023-06-26T01:10:24;13.45;77.66
65598;SHT31;52267;51.984;20.956;2023-06-26T01:12:54;13.45;77.78
65598;SHT31;52267;51.984;20.956;2023-06-26T01:15:21;13.44;77.79
65598;SHT31;52267;51.984;20.956;2023-06-26T01:17:48;13.41;77.85
65598;SHT31;52267;51.984;20.956;2023-06-26T01:20:19;13.39;77.95
65598;SHT31;52267;51.984;20.956;2023-06-26T01:25:48;13.38;77.69
65598;SHT31;52267;51.984;20.956;2023-06-26T01:28:25;13.36;77.69
65598;SHT31;52267;51.984;20.956;2023-06-26T01:30:53;13.31;77.74
65598;SHT31;52267;51.984;20.956;2023-06-26T01:33:21;13.27;77.92
65598;SHT31;52267;51.984;20.956;2023-06-26T01:35:48;13.24;78.06
65598;SHT31;52267;51.984;20.956;2023-06-26T01:38:16;13.21;78.19
65598;SHT31;52267;51.984;20.956;2023-06-26T01:40:46;13.16;78.37
65598;SHT31;52267;51.984;20.956;2023-06-26T01:46:43;13.06;78.68
65598;SHT31;52267;51.984;20.956;2023-06-26T01:52:21;13.01;78.87
65598;SHT31;52267;51.984;20.956;2023-06-26T01:58:08;13.02;78.76
65598;SHT31;52267;51.984;20.956;2023-06-26T02:00:35;13.02;78.52
65598;SHT31;52267;51.984;20.956;2023-06-26T02:03:03;13.00;78.47
65598;SHT31;52267;51.984;20.956;2023-06-26T02:05:32;12.99;78.50
65598;SHT31;52267;51.984;20.956;2023-06-26T02:07:59;12.98;78.33
65598;SHT31;52267;51.984;20.956;2023-06-26T02:10:28;12.98;78.30
65598;SHT31;52267;51.984;20.956;2023-06-26T02:12:59;12.94;78.41
65598;SHT31;52267;51.984;20.956;2023-06-26T02:15:27;12.91;78.61
65598;SHT31;52267;51.984;20.956;2023-06-26T02:17:54;12.88;78.71
65598;SHT31;52267;51.984;20.956;2023-06-26T02:20:22;12.85;78.77
65598;SHT31;52267;51.984;20.956;2023-06-26T02:22:49;12.81;78.85
65598;SHT31;52267;51.984;20.956;2023-06-26T02:25:17;12.77;79.06
65598;SHT31;52267;51.984;20.956;2023-06-26T02:27:44;12.77;79.04
65598;SHT31;52267;51.984;20.956;2023-06-26T02:30:11;12.78;79.05
65598;SHT31;52267;51.984;20.956;2023-06-26T02:32:38;12.75;79.18
65598;SHT31;52267;51.984;20.956;2023-06-26T02:35:05;12.73;79.25
65598;SHT31;52267;51.984;20.956;2023-06-26T02:37:33;12.76;79.29
65598;SHT31;52267;51.984;20.956;2023-06-26T02:40:00;12.76;79.07
65598;SHT31;52267;51.984;20.956;2023-06-26T02:42:27;12.81;78.80
65598;SHT31;52267;51.984;20.956;2023-06-26T02:44:54;12.81;78.83
65598;SHT31;52267;51.984;20.956;2023-06-26T02:47:21;12.81;78.84
65598;SHT31;52267;51.984;20.956;2023-06-26T02:49:48;12.78;79.03
65598;SHT31;52267;51.984;20.956;2023-06-26T02:52:15;12.77;79.03
65598;SHT31;52267;51.984;20.956;2023-06-26T02:54:42;12.76;79.16
65598;SHT31;52267;51.984;20.956;2023-06-26T02:57:09;12.76;79.31
65598;SHT31;52267;51.984;20.956;2023-06-26T02:59:36;12.75;79.45
65598;SHT31;52267;51.984;20.956;2023-06-26T03:02:05;12.75;79.53
65598;SHT31;52267;51.984;20.956;2023-06-26T03:04:33;12.77;79.54
65598;SHT31;52267;51.984;20.956;2023-06-26T03:07:03;12.77;79.63
65598;SHT31;52267;51.984;20.956;2023-06-26T03:09:30;12.81;79.59
65598;SHT31;52267;51.984;20.956;2023-06-26T03:11:57;12.85;79.51
65598;SHT31;52267;51.984;20.956;2023-06-26T03:14:24;12.88;79.50
65598;SHT31;52267;51.984;20.956;2023-06-26T03:16:53;12.92;79.22
65598;SHT31;52267;51.984;20.956;2023-06-26T03:19:23;12.95;79.31
65598;SHT31;52267;51.984;20.956;2023-06-26T03:21:50;12.95;79.53
65598;SHT31;52267;51.984;20.956;2023-06-26T03:24:17;12.97;79.59
65598;SHT31;52267;51.984;20.956;2023-06-26T03:26:44;13.00;79.63
65598;SHT31;52267;51.984;20.956;2023-06-26T03:29:11;13.04;79.74
65598;SHT31;52267;51.984;20.956;2023-06-26T03:31:38;13.08;79.70
65598;SHT31;52267;51.984;20.956;2023-06-26T03:34:06;13.14;79.62
65598;SHT31;52267;51.984;20.956;2023-06-26T03:36:33;13.16;79.69
65598;SHT31;52267;51.984;20.956;2023-06-26T03:39:00;13.23;79.64
65598;SHT31;52267;51.984;20.956;2023-06-26T03:41:27;13.29;79.97
65598;SHT31;52267;51.984;20.956;2023-06-26T03:43:54;13.32;80.08
65598;SHT31;52267;51.984;20.956;2023-06-26T03:46:22;13.38;80.21
65598;SHT31;52267;51.984;20.956;2023-06-26T03:48:49;13.45;80.35
65598;SHT31;52267;51.984;20.956;2023-06-26T03:51:16;13.54;80.30
65598;SHT31;52267;51.984;20.956;2023-06-26T03:53:43;13.60;80.44
65598;SHT31;52267;51.984;20.956;2023-06-26T03:56:10;13.68;80.41
65598;SHT31;52267;51.984;20.956;2023-06-26T03:58:37;13.76;80.34
65598;SHT31;52267;51.984;20.956;2023-06-26T04:01:04;13.84;80.45
65598;SHT31;52267;51.984;20.956;2023-06-26T04:03:31;13.93;80.48
65598;SHT31;52267;51.984;20.956;2023-06-26T04:05:59;14.02;80.47
65598;SHT31;52267;51.984;20.956;2023-06-26T04:08:26;14.11;80.37
65598;SHT31;52267;51.984;20.956;2023-06-26T04:10:53;14.22;80.35
65598;SHT31;52267;51.984;20.956;2023-06-26T04:13:21;14.32;80.32
65598;SHT31;52267;51.984;20.956;2023-06-26T04:15:48;14.44;80.28
65598;SHT31;52267;51.984;20.956;2023-06-26T04:18:15;14.54;80.27
65598;SHT31;52267;51.984;20.956;2023-06-26T04:23:36;14.77;80.32
65598;SHT31;52267;51.984;20.956;2023-06-26T04:26:03;14.88;80.32
65598;SHT31;52267;51.984;20.956;2023-06-26T04:28:32;14.98;80.32
65598;SHT31;52267;51.984;20.956;2023-06-26T04:31:02;15.10;80.06
65598;SHT31;52267;51.984;20.956;2023-06-26T04:33:32;15.22;79.98
65598;SHT31;52267;51.984;20.956;2023-06-26T04:35:59;15.33;79.83
65598;SHT31;52267;51.984;20.956;2023-06-26T04:38:30;15.45;79.69
65598;SHT31;52267;51.984;20.956;2023-06-26T04:40:59;15.57;79.64
65598;SHT31;52267;51.984;20.956;2023-06-26T04:43:27;15.69;79.36
65598;SHT31;52267;51.984;20.956;2023-06-26T04:45:54;15.81;79.17
65598;SHT31;52267;51.984;20.956;2023-06-26T04:48:22;15.93;78.87
65598;SHT31;52267;51.984;20.956;2023-06-26T04:50:49;16.04;78.67
65598;SHT31;52267;51.984;20.956;2023-06-26T04:53:20;16.14;78.54
65598;SHT31;52267;51.984;20.956;2023-06-26T04:55:49;16.26;78.24
65598;SHT31;52267;51.984;20.956;2023-06-26T04:58:17;16.38;78.06
65598;SHT31;52267;51.984;20.956;2023-06-26T05:00:44;16.50;77.99
65598;SHT31;52267;51.984;20.956;2023-06-26T05:03:12;16.61;77.90
65598;SHT31;52267;51.984;20.956;2023-06-26T05:05:43;16.74;77.92
65598;SHT31;52267;51.984;20.956;2023-06-26T05:08:17;16.86;77.85
65598;SHT31;52267;51.984;20.956;2023-06-26T05:10:49;16.99;77.64
65598;SHT31;52267;51.984;20.956;2023-06-26T05:13:16;17.12;77.52
65598;SHT31;52267;51.984;20.956;2023-06-26T05:15:45;17.26;77.33
65598;SHT31;52267;51.984;20.956;2023-06-26T05:18:13;17.39;76.98
65598;SHT31;52267;51.984;20.956;2023-06-26T05:20:40;17.53;76.72
65598;SHT31;52267;51.984;20.956;2023-06-26T05:23:08;17.66;76.40
65598;SHT31;52267;51.984;20.956;2023-06-26T05:25:38;17.77;76.18
65598;SHT31;52267;51.984;20.956;2023-06-26T05:28:06;17.91;76.02
65598;SHT31;52267;51.984;20.956;2023-06-26T05:30:36;18.04;75.74
65598;SHT31;52267;51.984;20.956;2023-06-26T05:33:04;18.17;75.74
65598;SHT31;52267;51.984;20.956;2023-06-26T05:35:32;18.31;75.75
65598;SHT31;52267;51.984;20.956;2023-06-26T05:38:01;18.45;75.53
65598;SHT31;52267;51.984;20.956;2023-06-26T05:40:28;18.58;75.18
65598;SHT31;52267;51.984;20.956;2023-06-26T05:42:56;18.73;75.14
65598;SHT31;52267;51.984;20.956;2023-06-26T05:45:23;18.85;74.95
65598;SHT31;52267;51.984;20.956;2023-06-26T05:47:50;18.99;74.74
65598;SHT31;52267;51.984;20.956;2023-06-26T05:50:17;19.13;74.58
65598;SHT31;52267;51.984;20.956;2023-06-26T05:52:45;19.28;74.12
65598;SHT31;52267;51.984;20.956;2023-06-26T05:55:13;19.40;74.00
65598;SHT31;52267;51.984;20.956;2023-06-26T05:57:40;19.55;73.70
65598;SHT31;52267;51.984;20.956;2023-06-26T06:00:08;19.70;73.70
65598;SHT31;52267;51.984;20.956;2023-06-26T06:02:37;19.85;73.07
65598;SHT31;52267;51.984;20.956;2023-06-26T06:05:05;20.03;72.75
65598;SHT31;52267;51.984;20.956;2023-06-26T06:07:33;20.19;71.93
65598;SHT31;52267;51.984;20.956;2023-06-26T06:10:01;20.35;71.38
65598;SHT31;52267;51.984;20.956;2023-06-26T06:12:33;20.50;71.21
65598;SHT31;52267;51.984;20.956;2023-06-26T06:15:00;20.66;70.93
65598;SHT31;52267;51.984;20.956;2023-06-26T06:17:27;20.83;69.97
65598;SHT31;52267;51.984;20.956;2023-06-26T06:19:54;21.01;69.76
65598;SHT31;52267;51.984;20.956;2023-06-26T06:22:21;21.19;69.58
65598;SHT31;52267;51.984;20.956;2023-06-26T06:24:49;21.33;68.16
65598;SHT31;52267;51.984;20.956;2023-06-26T06:27:17;21.49;68.29
65598;SHT31;52267;51.984;20.956;2023-06-26T06:29:44;21.64;68.29
65598;SHT31;52267;51.984;20.956;2023-06-26T06:32:11;21.79;67.66
65598;SHT31;52267;51.984;20.956;2023-06-26T06:34:38;21.95;67.25
65598;SHT31;52267;51.984;20.956;2023-06-26T06:37:05;22.11;66.94
65598;SHT31;52267;51.984;20.956;2023-06-26T06:39:32;22.28;66.27
65598;SHT31;52267;51.984;20.956;2023-06-26T06:42:00;22.48;65.72
65598;SHT31;52267;51.984;20.956;2023-06-26T06:44:27;22.68;64.67
65598;SHT31;52267;51.984;20.956;2023-06-26T06:46:54;22.89;63.95
65598;SHT31;52267;51.984;20.956;2023-06-26T06:49:21;23.07;63.89
65598;SHT31;52267;51.984;20.956;2023-06-26T06:51:48;23.23;63.17
65598;SHT31;52267;51.984;20.956;2023-06-26T06:54:15;23.41;63.28
65598;SHT31;52267;51.984;20.956;2023-06-26T06:56:43;23.58;62.81
65598;SHT31;52267;51.984;20.956;2023-06-26T06:59:10;23.71;60.24
65598;SHT31;52267;51.984;20.956;2023-06-26T07:01:39;23.86;61.23
65598;SHT31;52267;51.984;20.956;2023-06-26T07:04:06;24.06;61.85
65598;SHT31;52267;51.984;20.956;2023-06-26T07:06:33;24.26;60.97
65598;SHT31;52267;51.984;20.956;2023-06-26T07:09:00;24.44;59.80
65598;SHT31;52267;51.984;20.956;2023-06-26T07:11:28;24.61;59.31
65598;SHT31;52267;51.984;20.956;2023-06-26T07:13:55;24.79;57.54
65598;SHT31;52267;51.984;20.956;2023-06-26T07:16:22;25.00;57.87
65598;SHT31;52267;51.984;20.956;2023-06-26T07:18:49;25.22;58.17
65598;SHT31;52267;51.984;20.956;2023-06-26T07:21:17;25.42;56.83
65598;SHT31;52267;51.984;20.956;2023-06-26T07:23:44;25.64;57.15
65598;SHT31;52267;51.984;20.956;2023-06-26T07:26:11;25.82;55.26
65598;SHT31;52267;51.984;20.956;2023-06-26T07:28:41;25.96;54.41
65598;SHT31;52267;51.984;20.956;2023-06-26T07:31:07;26.12;53.58
65598;SHT31;52267;51.984;20.956;2023-06-26T07:33:34;26.31;53.08
65598;SHT31;52267;51.984;20.956;2023-06-26T07:36:01;26.45;52.85
65598;SHT31;52267;51.984;20.956;2023-06-26T07:38:29;26.58;52.48
65598;SHT31;52267;51.984;20.956;2023-06-26T07:40:56;26.78;51.63
65598;SHT31;52267;51.984;20.956;2023-06-26T07:43:23;26.89;51.13
65598;SHT31;52267;51.984;20.956;2023-06-26T07:45:50;26.97;50.27
65598;SHT31;52267;51.984;20.956;2023-06-26T07:48:19;27.09;49.28
65598;SHT31;52267;51.984;20.956;2023-06-26T07:50:46;27.28;48.76
65598;SHT31;52267;51.984;20.956;2023-06-26T07:53:14;27.46;47.34
65598;SHT31;52267;51.984;20.956;2023-06-26T07:55:41;27.52;46.14
65598;SHT31;52267;51.984;20.956;2023-06-26T07:58:08;27.55;45.46
65598;SHT31;52267;51.984;20.956;2023-06-26T08:00:36;27.72;46.41
65598;SHT31;52267;51.984;20.956;2023-06-26T08:03:03;27.91;45.03
65598;SHT31;52267;51.984;20.956;2023-06-26T08:05:30;27.98;45.47
65598;SHT31;52267;51.984;20.956;2023-06-26T08:07:57;28.10;45.27
65598;SHT31;52267;51.984;20.956;2023-06-26T08:10:24;28.29;45.48
65598;SHT31;52267;51.984;20.956;2023-06-26T08:12:51;28.42;44.36
65598;SHT31;52267;51.984;20.956;2023-06-26T08:15:19;28.54;43.44
65598;SHT31;52267;51.984;20.956;2023-06-26T08:17:46;28.43;43.03
65598;SHT31;52267;51.984;20.956;2023-06-26T08:20:13;28.41;42.63
65598;SHT31;52267;51.984;20.956;2023-06-26T08:22:40;28.54;41.76
65598;SHT31;52267;51.984;20.956;2023-06-26T08:25:07;28.61;40.77
65598;SHT31;52267;51.984;20.956;2023-06-26T08:27:35;28.76;40.90
65598;SHT31;52267;51.984;20.956;2023-06-26T08:30:02;28.92;39.81
65598;SHT31;52267;51.984;20.956;2023-06-26T08:32:31;28.92;39.02
65598;SHT31;52267;51.984;20.956;2023-06-26T08:34:58;29.08;39.61
65598;SHT31;52267;51.984;20.956;2023-06-26T08:37:25;29.48;40.64
65598;SHT31;52267;51.984;20.956;2023-06-26T08:39:52;29.62;39.13
65598;SHT31;52267;51.984;20.956;2023-06-26T08:42:19;29.65;38.12
65598;SHT31;52267;51.984;20.956;2023-06-26T08:44:46;29.86;38.79
65598;SHT31;52267;51.984;20.956;2023-06-26T08:47:13;30.01;37.87
65598;SHT31;52267;51.984;20.956;2023-06-26T08:49:43;30.21;36.53
65598;SHT31;52267;51.984;20.956;2023-06-26T08:52:30;30.25;37.12
65598;SHT31;52267;51.984;20.956;2023-06-26T08:55:06;29.78;37.05
65598;SHT31;52267;51.984;20.956;2023-06-26T08:57:37;29.32;37.82
65598;SHT31;52267;51.984;20.956;2023-06-26T09:00:05;29.23;37.89
65598;SHT31;52267;51.984;20.956;2023-06-26T09:02:35;29.46;38.58
65598;SHT31;52267;51.984;20.956;2023-06-26T09:05:03;29.64;38.07
65598;SHT31;52267;51.984;20.956;2023-06-26T09:07:30;29.74;37.27
65598;SHT31;52267;51.984;20.956;2023-06-26T09:09:57;29.77;36.62
65598;SHT31;52267;51.984;20.956;2023-06-26T09:12:26;29.76;38.71
65598;SHT31;52267;51.984;20.956;2023-06-26T09:14:55;29.78;37.13
65598;SHT31;52267;51.984;20.956;2023-06-26T09:17:29;29.80;37.75
65598;SHT31;52267;51.984;20.956;2023-06-26T09:19:57;29.43;37.55
65598;SHT31;52267;51.984;20.956;2023-06-26T09:22:25;28.99;37.36
65598;SHT31;52267;51.984;20.956;2023-06-26T09:24:52;28.94;38.25
65598;SHT31;52267;51.984;20.956;2023-06-26T09:27:20;29.22;37.47
65598;SHT31;52267;51.984;20.956;2023-06-26T09:29:48;29.54;38.08
65598;SHT31;52267;51.984;20.956;2023-06-26T09:32:15;29.95;37.49
65598;SHT31;52267;51.984;20.956;2023-06-26T09:34:43;30.10;36.05
65598;SHT31;52267;51.984;20.956;2023-06-26T09:37:11;30.39;36.96
65598;SHT31;52267;51.984;20.956;2023-06-26T09:39:40;30.71;37.33
65598;SHT31;52267;51.984;20.956;2023-06-26T09:42:07;30.90;37.23
65598;SHT31;52267;51.984;20.956;2023-06-26T09:44:34;30.99;36.35
65598;SHT31;52267;51.984;20.956;2023-06-26T09:47:01;30.89;36.30
65598;SHT31;52267;51.984;20.956;2023-06-26T09:49:30;31.01;36.02
65598;SHT31;52267;51.984;20.956;2023-06-26T09:51:59;31.08;35.38
65598;SHT31;52267;51.984;20.956;2023-06-26T09:54:28;30.95;34.92
65598;SHT31;52267;51.984;20.956;2023-06-26T09:57:06;31.00;35.70
65598;SHT31;52267;51.984;20.956;2023-06-26T09:59:41;31.27;35.77
65598;SHT31;52267;51.984;20.956;2023-06-26T10:02:11;31.37;35.79
65598;SHT31;52267;51.984;20.956;2023-06-26T10:04:38;31.33;35.66
65598;SHT31;52267;51.984;20.956;2023-06-26T10:07:06;31.32;34.91
65598;SHT31;52267;51.984;20.956;2023-06-26T10:09:40;31.30;34.18
65598;SHT31;52267;51.984;20.956;2023-06-26T10:12:11;31.22;34.06
65598;SHT31;52267;51.984;20.956;2023-06-26T10:14:46;31.11;33.50
65598;SHT31;52267;51.984;20.956;2023-06-26T10:17:16;31.08;34.59
65598;SHT31;52267;51.984;20.956;2023-06-26T10:19:46;30.72;35.01
65598;SHT31;52267;51.984;20.956;2023-06-26T10:22:15;30.38;35.29
65598;SHT31;52267;51.984;20.956;2023-06-26T10:24:45;30.34;35.18
65598;SHT31;52267;51.984;20.956;2023-06-26T10:27:16;30.56;34.45
65598;SHT31;52267;51.984;20.956;2023-06-26T10:29:47;30.64;33.29
65598;SHT31;52267;51.984;20.956;2023-06-26T10:32:23;31.01;34.84
65598;SHT31;52267;51.984;20.956;2023-06-26T10:34:52;31.43;35.21
65598;SHT31;52267;51.984;20.956;2023-06-26T10:37:20;31.12;34.36
65598;SHT31;52267;51.984;20.956;2023-06-26T10:39:48;30.56;34.58
65598;SHT31;52267;51.984;20.956;2023-06-26T10:42:18;30.58;34.05
65598;SHT31;52267;51.984;20.956;2023-06-26T10:44:47;30.49;34.16
65598;SHT31;52267;51.984;20.956;2023-06-26T10:47:30;30.56;33.23
65598;SHT31;52267;51.984;20.956;2023-06-26T10:53:08;31.19;33.27
65598;SHT31;52267;51.984;20.956;2023-06-26T10:55:49;31.48;33.00
65598;SHT31;52267;51.984;20.956;2023-06-26T11:03:44;31.76;31.86
65598;SHT31;52267;51.984;20.956;2023-06-26T11:06:30;32.03;32.36
65598;SHT31;52267;51.984;20.956;2023-06-26T11:14:18;31.49;31.94
65598;SHT31;52267;51.984;20.956;2023-06-26T11:16:47;31.63;32.02
65598;SHT31;52267;51.984;20.956;2023-06-26T11:19:18;31.86;32.09
65598;SHT31;52267;51.984;20.956;2023-06-26T11:21:46;32.04;31.58
65598;SHT31;52267;51.984;20.956;2023-06-26T11:24:14;32.03;30.77
65598;SHT31;52267;51.984;20.956;2023-06-26T11:26:43;32.07;31.33
65598;SHT31;52267;51.984;20.956;2023-06-26T11:29:11;32.15;31.16
65598;SHT31;52267;51.984;20.956;2023-06-26T11:31:39;32.29;30.86
65598;SHT31;52267;51.984;20.956;2023-06-26T11:34:09;32.60;29.91
65598;SHT31;52267;51.984;20.956;2023-06-26T11:36:40;32.76;30.37
65598;SHT31;52267;51.984;20.956;2023-06-26T11:39:09;32.83;29.90
65598;SHT31;52267;51.984;20.956;2023-06-26T11:41:37;32.60;28.86
65598;SHT31;52267;51.984;20.956;2023-06-26T11:44:07;32.39;29.20
65598;SHT31;52267;51.984;20.956;2023-06-26T11:46:36;32.39;29.30
65598;SHT31;52267;51.984;20.956;2023-06-26T11:49:06;32.39;29.21
65598;SHT31;52267;51.984;20.956;2023-06-26T11:51:34;32.46;29.54
65598;SHT31;52267;51.984;20.956;2023-06-26T11:54:04;32.56;29.69
65598;SHT31;52267;51.984;20.956;2023-06-26T11:56:31;32.69;29.36
65598;SHT31;52267;51.984;20.956;2023-06-26T11:58:59;32.77;28.88
65598;SHT31;52267;51.984;20.956;2023-06-26T12:04:11;32.85;29.13
65598;SHT31;52267;51.984;20.956;2023-06-26T12:06:43;32.88;28.54
65598;SHT31;52267;51.984;20.956;2023-06-26T12:09:18;32.72;28.61
65598;SHT31;52267;51.984;20.956;2023-06-26T12:11:46;32.69;28.51
65598;SHT31;52267;51.984;20.956;2023-06-26T12:14:17;32.94;28.79
65598;SHT31;52267;51.984;20.956;2023-06-26T12:16:47;33.21;28.81
65598;SHT31;52267;51.984;20.956;2023-06-26T12:19:14;33.36;28.68
65598;SHT31;52267;51.984;20.956;2023-06-26T12:24:09;33.50;29.27
65598;SHT31;52267;51.984;20.956;2023-06-26T12:26:49;33.47;28.64
65598;SHT31;52267;51.984;20.956;2023-06-26T12:29:31;33.47;28.21
65598;SHT31;52267;51.984;20.956;2023-06-26T12:32:00;33.34;28.11
65598;SHT31;52267;51.984;20.956;2023-06-26T12:34:32;33.36;28.28
65598;SHT31;52267;51.984;20.956;2023-06-26T12:37:01;33.48;28.61
65598;SHT31;52267;51.984;20.956;2023-06-26T12:39:46;33.56;28.42
65598;SHT31;52267;51.984;20.956;2023-06-26T12:42:22;33.41;28.58
65598;SHT31;52267;51.984;20.956;2023-06-26T12:44:54;32.95;28.68
65598;SHT31;52267;51.984;20.956;2023-06-26T12:47:27;32.54;28.14
65598;SHT31;52267;51.984;20.956;2023-06-26T12:49:57;32.09;28.81
65598;SHT31;52267;51.984;20.956;2023-06-26T12:52:24;31.70;29.26
65598;SHT31;52267;51.984;20.956;2023-06-26T12:54:52;31.95;29.83
65598;SHT31;52267;51.984;20.956;2023-06-26T12:57:22;32.14;29.74
65598;SHT31;52267;51.984;20.956;2023-06-26T12:59:49;32.28;29.66
65598;SHT31;52267;51.984;20.956;2023-06-26T13:02:16;32.02;29.31
65598;SHT31;52267;51.984;20.956;2023-06-26T13:04:43;31.68;29.84
65598;SHT31;52267;51.984;20.956;2023-06-26T13:07:11;31.66;30.30
65598;SHT31;52267;51.984;20.956;2023-06-26T13:09:39;31.30;30.42
65598;SHT31;52267;51.984;20.956;2023-06-26T13:12:07;30.94;31.05
65598;SHT31;52267;51.984;20.956;2023-06-26T13:14:34;30.72;32.18
65598;SHT31;52267;51.984;20.956;2023-06-26T13:17:01;30.56;31.32
65598;SHT31;52267;51.984;20.956;2023-06-26T13:19:29;30.57;31.87
65598;SHT31;52267;51.984;20.956;2023-06-26T13:21:56;30.99;31.61
65598;SHT31;52267;51.984;20.956;2023-06-26T13:24:23;31.41;32.16
65598;SHT31;52267;51.984;20.956;2023-06-26T13:26:50;31.79;32.97
65598;SHT31;52267;51.984;20.956;2023-06-26T13:29:17;32.15;32.04
65598;SHT31;52267;51.984;20.956;2023-06-26T13:31:44;32.42;31.08
65598;SHT31;52267;51.984;20.956;2023-06-26T13:34:19;32.58;30.68
65598;SHT31;52267;51.984;20.956;2023-06-26T13:36:48;32.35;29.31
65598;SHT31;52267;51.984;20.956;2023-06-26T13:39:15;32.09;30.18
65598;SHT31;52267;51.984;20.956;2023-06-26T13:41:42;32.21;30.06
65598;SHT31;52267;51.984;20.956;2023-06-26T13:44:10;32.19;30.18
65598;SHT31;52267;51.984;20.956;2023-06-26T13:46:37;32.22;29.92
65598;SHT31;52267;51.984;20.956;2023-06-26T13:49:04;32.30;30.39
65598;SHT31;52267;51.984;20.956;2023-06-26T13:51:31;32.02;30.86
65598;SHT31;52267;51.984;20.956;2023-06-26T13:53:58;31.60;31.68
65598;SHT31;52267;51.984;20.956;2023-06-26T13:56:27;31.37;31.47
65598;SHT31;52267;51.984;20.956;2023-06-26T13:58:56;31.49;31.18
65598;SHT31;52267;51.984;20.956;2023-06-26T14:01:24;31.74;31.47
65598;SHT31;52267;51.984;20.956;2023-06-26T14:03:52;31.97;31.13
65598;SHT31;52267;51.984;20.956;2023-06-26T14:06:19;32.12;30.77
65598;SHT31;52267;51.984;20.956;2023-06-26T14:08:46;32.03;30.90
65598;SHT31;52267;51.984;20.956;2023-06-26T14:11:13;31.51;30.71
65598;SHT31;52267;51.984;20.956;2023-06-26T14:13:42;30.99;31.23
65598;SHT31;52267;51.984;20.956;2023-06-26T14:16:09;30.76;31.81
65598;SHT31;52267;51.984;20.956;2023-06-26T14:18:36;30.90;31.64
65598;SHT31;52267;51.984;20.956;2023-06-26T14:21:04;31.10;31.75
65598;SHT31;52267;51.984;20.956;2023-06-26T14:23:32;31.23;32.14
65598;SHT31;52267;51.984;20.956;2023-06-26T14:25:59;30.98;32.62
65598;SHT31;52267;51.984;20.956;2023-06-26T14:28:26;30.88;32.44
65598;SHT31;52267;51.984;20.956;2023-06-26T14:30:53;30.93;32.44
65598;SHT31;52267;51.984;20.956;2023-06-26T14:33:20;31.06;32.70
65598;SHT31;52267;51.984;20.956;2023-06-26T14:35:47;31.25;32.39
65598;SHT31;52267;51.984;20.956;2023-06-26T14:38:14;31.42;32.17
65598;SHT31;52267;51.984;20.956;2023-06-26T14:40:41;31.53;31.96
65598;SHT31;52267;51.984;20.956;2023-06-26T14:43:08;31.62;31.64
65598;SHT31;52267;51.984;20.956;2023-06-26T14:45:36;31.68;31.87
65598;SHT31;52267;51.984;20.956;2023-06-26T14:48:03;31.70;31.85
65598;SHT31;52267;51.984;20.956;2023-06-26T14:50:30;31.66;31.24
65598;SHT31;52267;51.984;20.956;2023-06-26T14:52:57;31.73;32.12
65598;SHT31;52267;51.984;20.956;2023-06-26T14:55:25;31.82;31.67
65598;SHT31;52267;51.984;20.956;2023-06-26T14:57:52;31.95;31.90
65598;SHT31;52267;51.984;20.956;2023-06-26T15:00:19;32.02;31.74
65598;SHT31;52267;51.984;20.956;2023-06-26T15:02:47;31.99;31.77
65598;SHT31;52267;51.984;20.956;2023-06-26T15:05:15;32.02;31.97
65598;SHT31;52267;51.984;20.956;2023-06-26T15:07:42;32.04;31.48
65598;SHT31;52267;51.984;20.956;2023-06-26T15:10:09;31.95;31.23
65598;SHT31;52267;51.984;20.956;2023-06-26T15:12:36;31.93;31.47
65598;SHT31;52267;51.984;20.956;2023-06-26T15:15:04;31.94;31.15
65598;SHT31;52267;51.984;20.956;2023-06-26T15:17:31;31.94;30.97
65598;SHT31;52267;51.984;20.956;2023-06-26T15:19:58;31.80;31.66
65598;SHT31;52267;51.984;20.956;2023-06-26T15:22:26;31.72;31.24
65598;SHT31;52267;51.984;20.956;2023-06-26T15:24:54;31.77;31.76
65598;SHT31;52267;51.984;20.956;2023-06-26T15:27:21;31.75;31.71
65598;SHT31;52267;51.984;20.956;2023-06-26T15:29:48;31.73;31.57
65598;SHT31;52267;51.984;20.956;2023-06-26T15:32:15;31.72;31.83
65598;SHT31;52267;51.984;20.956;2023-06-26T15:34:43;31.63;31.97
65598;SHT31;52267;51.984;20.956;2023-06-26T15:37:10;31.64;32.38
65598;SHT31;52267;51.984;20.956;2023-06-26T15:39:44;31.69;32.48
65598;SHT31;52267;51.984;20.956;2023-06-26T15:42:11;31.74;32.15
65598;SHT31;52267;51.984;20.956;2023-06-26T15:44:38;31.70;32.43
65598;SHT31;52267;51.984;20.956;2023-06-26T15:47:05;31.52;32.48
65598;SHT31;52267;51.984;20.956;2023-06-26T15:49:32;31.32;32.01
65598;SHT31;52267;51.984;20.956;2023-06-26T15:51:59;31.32;32.29
65598;SHT31;52267;51.984;20.956;2023-06-26T15:54:27;31.23;31.95
65598;SHT31;52267;51.984;20.956;2023-06-26T15:56:53;31.10;32.07